Airport View

Enter AWOS ICAO identifier for current METAR.

ex. KFNL

KGYH 170915Z AUTO 02011G17KT 10SM BKN039 OVC046 07/M02 A3007 RMK AO2

17 Nov 2019 09:23

Frequency: 127.325

Phone: 864-277-5674

Other Area AWOS: KGMU - KGSP - KLQK - KAND

TAF AMD KGMU 170904Z 1709/1806 03012G22KT P6SM OVC040 FM171200 04011G18KT P6SM SCT060 FM171600 04010KT P6SM FEW250 FM180200 04003KT P6SM BKN200 FM180400 05003KT P6SM BKN050